Time;durP1;ratioP1;P1;durP2;ratioP2;P2;SDS_P1;SDS_P2;PMS_P1;PMS_P2;Temp;Humidity;BMP_temperature;BMP_pressure;BME280_temperature;BME280_humidity;BME280_pressure;Samples;Min_cycle;Max_cycle;Signal;HPM_P1;HPM_P2
2021/09/12 00:02:26;;;;;;;26.23;23.33;;;19.00;99.90;;;;;;5047208;28;20223;-79
2021/09/12 00:04:56;;;;;;;27.90;22.80;;;19.00;99.90;;;;;;5059317;28;20568;-79
2021/09/12 00:07:24;;;;;;;29.40;26.05;;;19.00;99.90;;;;;;5057903;28;20540;-79
2021/09/12 00:09:52;;;;;;;27.87;24.87;;;19.10;99.90;;;;;;5060236;28;20289;-79
2021/09/12 00:12:20;;;;;;;29.87;24.53;;;19.10;99.90;;;;;;5058373;28;20507;-79
2021/09/12 00:14:50;;;;;;;28.10;24.27;;;19.00;99.90;;;;;;5042383;28;20564;-79
2021/09/12 00:17:21;;;;;;;29.30;25.10;;;19.00;99.90;;;;;;5041956;28;20439;-79
2021/09/12 00:19:49;;;;;;;28.90;25.80;;;19.00;99.90;;;;;;5040298;28;20948;-79
2021/09/12 00:22:19;;;;;;;27.13;24.23;;;19.00;99.90;;;;;;5059922;28;20539;-79
2021/09/12 00:24:49;;;;;;;28.67;25.47;;;18.90;99.90;;;;;;5049255;28;20837;-79
2021/09/12 00:27:17;;;;;;;32.93;23.90;;;18.90;99.90;;;;;;5041793;28;20499;-79
2021/09/12 00:29:45;;;;;;;28.60;23.63;;;18.90;99.90;;;;;;5056809;28;20461;-79
2021/09/12 00:32:15;;;;;;;31.10;27.35;;;18.90;99.90;;;;;;5057085;28;20477;-79
2021/09/12 00:34:43;;;;;;;30.27;25.17;;;19.00;99.90;;;;;;5057733;28;20208;-79
2021/09/12 00:37:11;;;;;;;28.67;25.50;;;19.00;99.90;;;;;;5059464;28;20436;-79
2021/09/12 00:39:41;;;;;;;29.67;24.63;;;19.00;99.90;;;;;;5057546;28;20206;-79
2021/09/12 00:42:09;;;;;;;28.03;25.13;;;19.00;99.90;;;;;;5057840;28;20553;-79
2021/09/12 00:44:37;;;;;;;29.07;25.97;;;18.90;99.90;;;;;;5058823;28;20512;-79
2021/09/12 00:47:10;;;;;;;31.50;26.13;;;18.90;99.90;;;;;;5043879;28;20515;-79
2021/09/12 00:49:39;;;;;;;29.00;24.83;;;18.90;99.90;;;;;;5058335;28;20434;-79
2021/09/12 00:52:12;;;;;;;29.37;25.10;;;18.90;99.90;;;;;;5057787;28;20446;-80
2021/09/12 00:54:44;;;;;;;26.93;23.40;;;18.90;99.90;;;;;;5057431;28;20469;-79
2021/09/12 00:57:14;;;;;;;27.97;25.10;;;18.90;99.90;;;;;;5059187;28;20462;-79
2021/09/12 00:59:44;;;;;;;29.33;24.03;;;18.90;99.90;;;;;;5044955;28;20569;-79
2021/09/12 01:02:12;;;;;;;29.58;26.27;;;18.90;99.90;;;;;;5058294;28;20447;-79
2021/09/12 01:04:41;;;;;;;28.50;25.43;;;18.90;99.90;;;;;;5041182;28;20222;-79
2021/09/12 01:07:09;;;;;;;27.97;24.97;;;18.90;99.90;;;;;;5040876;28;20500;-79
2021/09/12 01:09:40;;;;;;;29.77;26.08;;;18.90;99.90;;;;;;5040043;28;20453;-79
2021/09/12 01:12:10;;;;;;;27.53;24.60;;;19.00;99.90;;;;;;5040931;28;20552;-79
2021/09/12 01:14:39;;;;;;;32.00;26.53;;;19.00;99.90;;;;;;5057840;28;20483;-79
2021/09/12 01:17:07;;;;;;;29.13;26.10;;;18.90;99.90;;;;;;5057067;28;20441;-79
2021/09/12 01:19:36;;;;;;;30.23;25.43;;;18.90;99.90;;;;;;5040961;28;20548;-79
2021/09/12 01:22:07;;;;;;;26.80;23.90;;;18.90;99.90;;;;;;5040379;28;20795;-79
2021/09/12 01:24:37;;;;;;;33.03;26.80;;;18.90;99.90;;;;;;5040321;28;20473;-79
2021/09/12 01:27:07;;;;;;;27.17;24.27;;;18.90;99.90;;;;;;5040558;28;20531;-79
2021/09/12 01:29:36;;;;;;;28.97;25.17;;;18.80;99.90;;;;;;5040180;28;20959;-79
2021/09/12 01:32:05;;;;;;;29.13;25.70;;;18.80;99.90;;;;;;5042485;28;20963;-79
2021/09/12 01:34:33;;;;;;;32.43;27.67;;;18.80;99.90;;;;;;5055402;28;20462;-80
2021/09/12 01:37:01;;;;;;;29.27;24.87;;;18.90;99.90;;;;;;5059162;28;20454;-78
2021/09/12 01:39:29;;;;;;;32.63;27.70;;;18.90;99.90;;;;;;5036616;28;20984;-79
2021/09/12 01:41:59;;;;;;;29.67;25.77;;;18.90;99.90;;;;;;5039636;28;20196;-79
2021/09/12 01:44:27;;;;;;;30.27;26.63;;;18.90;99.90;;;;;;5040026;28;20518;-79
2021/09/12 01:46:56;;;;;;;32.50;27.57;;;18.90;99.90;;;;;;5040155;28;20815;-79
2021/09/12 01:49:25;;;;;;;32.00;25.87;;;18.80;99.90;;;;;;5058322;28;20513;-79
2021/09/12 01:51:53;;;;;;;29.80;26.13;;;18.80;99.90;;;;;;5054114;28;20518;-79
2021/09/12 01:54:22;;;;;;;29.70;25.90;;;18.80;99.90;;;;;;5057736;28;20466;-79
2021/09/12 01:56:50;;;;;;;27.80;25.00;;;18.80;99.90;;;;;;5039925;28;20534;-79
2021/09/12 01:59:20;;;;;;;30.30;26.40;;;18.80;99.90;;;;;;5040032;28;20862;-79
2021/09/12 02:01:48;;;;;;;28.30;25.30;;;18.80;99.90;;;;;;5039268;28;20536;-79
2021/09/12 02:04:16;;;;;;;29.30;24.67;;;18.80;99.90;;;;;;5046336;28;20455;-79
2021/09/12 02:06:45;;;;;;;31.17;25.20;;;18.80;99.90;;;;;;5057990;28;20208;-79
2021/09/12 02:09:13;;;;;;;32.60;27.00;;;18.80;99.90;;;;;;5056544;28;20493;-79
2021/09/12 02:11:41;;;;;;;32.22;28.30;;;18.80;99.90;;;;;;5056768;28;20581;-79
2021/09/12 02:14:10;;;;;;;29.40;25.80;;;18.80;99.90;;;;;;5055748;28;20247;-79
2021/09/12 02:16:39;;;;;;;31.00;25.77;;;18.80;99.90;;;;;;5056448;28;20454;-79
2021/09/12 02:19:07;;;;;;;32.53;27.00;;;18.80;99.90;;;;;;5052940;28;20553;-79
2021/09/12 02:21:35;;;;;;;33.77;27.67;;;18.70;99.90;;;;;;5039377;28;20970;-79
2021/09/12 02:24:04;;;;;;;35.30;27.00;;;18.70;99.90;;;;;;5056687;28;20553;-79
2021/09/12 02:26:33;;;;;;;30.30;26.50;;;18.70;99.90;;;;;;5038739;28;20549;-79
2021/09/12 02:29:03;;;;;;;33.50;27.77;;;18.70;99.90;;;;;;5039136;28;20470;-79
2021/09/12 02:31:31;;;;;;;30.60;26.97;;;18.60;99.90;;;;;;5039390;28;20446;-79
2021/09/12 02:34:01;;;;;;;35.65;29.15;;;18.60;99.90;;;;;;5023850;28;20477;-79
2021/09/12 02:36:29;;;;;;;34.73;27.50;;;18.70;99.90;;;;;;5019344;28;20204;-79
2021/09/12 02:38:57;;;;;;;32.67;27.65;;;18.70;99.90;;;;;;5028330;28;20440;-79
2021/09/12 02:41:25;;;;;;;30.40;27.17;;;18.70;99.90;;;;;;5038968;28;20199;-79
2021/09/12 02:43:54;;;;;;;32.70;27.80;;;18.60;99.90;;;;;;5038587;28;20478;-79
2021/09/12 02:46:22;;;;;;;32.77;27.17;;;18.60;99.90;;;;;;5039129;28;20438;-79
2021/09/12 02:48:52;;;;;;;34.50;27.80;;;18.60;99.90;;;;;;5045418;28;20875;-79
2021/09/12 02:51:22;;;;;;;33.27;27.10;;;18.50;99.90;;;;;;5055458;28;20442;-79
2021/09/12 02:53:50;;;;;;;32.00;27.80;;;18.50;99.90;;;;;;5058113;28;20484;-80
2021/09/12 02:56:18;;;;;;;35.10;27.77;;;18.50;99.90;;;;;;5059178;28;20458;-81
2021/09/12 02:58:47;;;;;;;33.93;27.10;;;18.50;99.90;;;;;;5040320;28;20468;-81
2021/09/12 03:01:15;;;;;;;31.90;27.73;;;18.40;99.90;;;;;;5040350;28;20477;-81
2021/09/12 03:03:43;;;;;;;33.10;28.33;;;18.40;99.90;;;;;;5058323;28;20535;-81
2021/09/12 03:06:12;;;;;;;33.40;28.67;;;18.40;99.90;;;;;;5048307;28;20494;-81
2021/09/12 03:08:43;;;;;;;34.83;30.27;;;18.50;99.90;;;;;;5058005;28;20834;-81
2021/09/12 03:11:11;;;;;;;36.83;30.75;;;18.50;99.90;;;;;;5038718;28;20479;-79
2021/09/12 03:13:39;;;;;;;35.40;29.17;;;18.40;99.90;;;;;;5038802;28;20196;-79
2021/09/12 03:16:07;;;;;;;36.23;30.73;;;18.40;99.90;;;;;;5056329;28;20859;-79
2021/09/12 03:18:36;;;;;;;31.60;28.30;;;18.40;99.90;;;;;;5056535;28;20457;-79
2021/09/12 03:21:04;;;;;;;31.20;27.80;;;18.40;99.90;;;;;;5055236;28;20544;-79
2021/09/12 03:23:32;;;;;;;33.90;29.37;;;18.30;99.90;;;;;;5052330;28;20512;-79
2021/09/12 03:26:02;;;;;;;35.40;29.47;;;18.30;99.90;;;;;;5038965;28;20454;-79
2021/09/12 03:28:30;;;;;;;37.70;29.10;;;18.30;99.90;;;;;;5038392;28;20830;-79
2021/09/12 03:30:58;;;;;;;34.07;29.37;;;18.30;99.90;;;;;;5056177;28;20469;-79
2021/09/12 03:33:27;;;;;;;38.63;30.23;;;18.30;99.90;;;;;;5055596;28;20496;-79
2021/09/12 03:35:55;;;;;;;34.00;28.23;;;18.30;99.90;;;;;;5055151;28;20473;-79
2021/09/12 03:38:23;;;;;;;35.38;29.98;;;18.30;99.90;;;;;;5055754;28;20444;-79
2021/09/12 03:40:52;;;;;;;35.13;29.93;;;18.30;99.90;;;;;;5038843;28;20222;-80
2021/09/12 03:43:21;;;;;;;34.95;30.15;;;18.30;99.90;;;;;;5037843;28;20518;-79
2021/09/12 03:45:49;;;;;;;39.90;30.53;;;18.30;99.90;;;;;;5038369;28;20199;-79
2021/09/12 03:48:18;;;;;;;34.77;29.47;;;18.40;99.90;;;;;;5056341;28;20774;-79
2021/09/12 03:50:50;;;;;;;33.97;28.73;;;18.30;99.90;;;;;;5056096;28;20442;-79
2021/09/12 03:53:19;;;;;;;34.30;27.93;;;18.30;99.90;;;;;;5037584;28;20465;-80
2021/09/12 03:55:48;;;;;;;33.00;28.60;;;18.30;99.90;;;;;;5054807;28;20447;-79
2021/09/12 03:58:16;;;;;;;36.00;29.20;;;18.30;99.90;;;;;;5054823;28;20540;-79
2021/09/12 04:00:45;;;;;;;32.60;27.97;;;18.20;99.90;;;;;;5054954;28;20897;-80
2021/09/12 04:03:14;;;;;;;31.17;26.57;;;18.20;99.90;;;;;;5051264;28;20470;-79
2021/09/12 04:05:43;;;;;;;34.07;28.23;;;18.20;99.90;;;;;;5037877;28;20987;-79
2021/09/12 04:08:11;;;;;;;34.00;28.40;;;18.20;99.90;;;;;;5038159;28;20467;-79
2021/09/12 04:10:40;;;;;;;32.90;26.83;;;18.20;99.90;;;;;;5038420;28;20865;-79
2021/09/12 04:13:08;;;;;;;34.50;29.67;;;18.20;99.90;;;;;;5037856;28;20450;-79
2021/09/12 04:15:37;;;;;;;34.93;29.87;;;18.20;99.90;;;;;;5053589;28;20457;-79
2021/09/12 04:18:07;;;;;;;33.50;29.03;;;18.20;99.90;;;;;;5055550;28;20450;-79
2021/09/12 04:20:35;;;;;;;36.07;29.20;;;18.20;99.90;;;;;;5055507;28;20450;-79
2021/09/12 04:23:03;;;;;;;38.53;28.40;;;18.20;99.90;;;;;;5055716;28;20500;-80
2021/09/12 04:25:31;;;;;;;36.87;31.43;;;18.10;99.90;;;;;;5041143;28;20480;-80
2021/09/12 04:27:59;;;;;;;39.80;33.67;;;18.10;99.90;;;;;;5054703;28;20459;-79
2021/09/12 04:30:28;;;;;;;41.17;34.80;;;18.10;99.90;;;;;;5046877;28;20955;-79
2021/09/12 04:32:56;;;;;;;44.90;33.90;;;18.10;99.90;;;;;;5038307;28;20967;-79
2021/09/12 04:35:25;;;;;;;45.70;33.60;;;18.10;99.90;;;;;;5037663;28;20541;-80
2021/09/12 04:37:53;;;;;;;44.00;35.07;;;18.10;99.90;;;;;;5037756;28;20908;-79
2021/09/12 04:40:22;;;;;;;40.50;33.50;;;18.10;99.90;;;;;;5038039;28;20484;-79
2021/09/12 04:42:50;;;;;;;41.10;31.50;;;18.10;99.90;;;;;;5037626;28;20545;-79
2021/09/12 04:45:19;;;;;;;40.83;32.80;;;18.10;99.90;;;;;;5038248;28;20478;-79
2021/09/12 04:47:47;;;;;;;41.22;34.67;;;18.10;99.90;;;;;;5049600;28;20446;-79
2021/09/12 04:50:15;;;;;;;41.13;32.67;;;18.10;99.90;;;;;;5051167;28;20756;-79
2021/09/12 04:52:47;;;;;;;37.67;31.40;;;18.10;99.90;;;;;;5041192;28;20493;-79
2021/09/12 04:55:26;;;;;;;37.00;31.13;;;18.10;99.90;;;;;;5058977;28;20457;-79
2021/09/12 04:57:54;;;;;;;35.33;30.23;;;18.10;99.90;;;;;;5041524;28;20472;-79
2021/09/12 05:00:22;;;;;;;39.73;32.33;;;18.10;99.90;;;;;;5041307;28;20453;-79
2021/09/12 05:02:50;;;;;;;35.13;29.87;;;18.10;99.90;;;;;;5036073;28;20471;-79
2021/09/12 05:05:19;;;;;;;34.73;29.13;;;18.10;99.90;;;;;;5021053;28;20475;-79
2021/09/12 05:07:49;;;;;;;35.60;28.80;;;18.10;99.90;;;;;;5021389;28;20478;-79
2021/09/12 05:10:19;;;;;;;34.63;29.80;;;18.10;99.90;;;;;;5030508;28;20458;-79
2021/09/12 05:12:48;;;;;;;37.33;30.77;;;18.00;99.90;;;;;;5022964;28;20445;-79
2021/09/12 05:15:16;;;;;;;37.10;29.97;;;18.10;99.90;;;;;;5054667;28;20478;-79
2021/09/12 05:17:44;;;;;;;38.93;31.77;;;18.10;99.90;;;;;;5057045;28;20898;-79
2021/09/12 05:20:14;;;;;;;42.97;34.00;;;18.10;99.90;;;;;;5039937;28;20448;-79
2021/09/12 05:22:42;;;;;;;40.17;30.97;;;18.10;99.90;;;;;;5048395;28;20453;-79
2021/09/12 05:25:12;;;;;;;37.90;29.23;;;18.20;99.90;;;;;;5059090;28;20457;-79
2021/09/12 05:27:40;;;;;;;43.90;33.63;;;18.10;99.90;;;;;;5057922;28;20950;-79
2021/09/12 05:30:09;;;;;;;40.47;30.17;;;18.10;99.90;;;;;;5059327;28;20457;-79
2021/09/12 05:32:37;;;;;;;40.23;30.40;;;18.10;99.90;;;;;;5058279;28;20580;-79
2021/09/12 05:35:06;;;;;;;40.60;33.60;;;18.10;99.90;;;;;;5059413;28;20867;-79
2021/09/12 05:37:34;;;;;;;38.97;30.73;;;18.10;99.90;;;;;;5058062;28;20549;-79
2021/09/12 05:40:03;;;;;;;37.90;30.23;;;18.10;99.90;;;;;;5040725;28;20541;-79
2021/09/12 05:42:33;;;;;;;41.60;32.30;;;18.10;99.90;;;;;;5041635;28;20442;-79
2021/09/12 05:45:01;;;;;;;40.30;33.13;;;18.10;99.90;;;;;;5040914;28;20518;-80
2021/09/12 05:47:30;;;;;;;38.60;30.37;;;18.20;99.90;;;;;;5041715;28;20269;-79
2021/09/12 05:49:59;;;;;;;38.60;29.83;;;18.20;99.90;;;;;;5058967;28;20434;-79
2021/09/12 05:52:27;;;;;;;40.67;31.83;;;18.20;99.90;;;;;;5060139;28;20513;-79
2021/09/12 05:54:55;;;;;;;36.07;29.90;;;18.20;99.90;;;;;;5041428;28;20846;-79
2021/09/12 05:57:24;;;;;;;37.80;31.10;;;18.20;99.90;;;;;;5040002;28;20465;-80
2021/09/12 05:59:54;;;;;;;40.90;31.27;;;18.20;99.90;;;;;;5041405;28;20460;-80
2021/09/12 06:02:22;;;;;;;42.33;30.47;;;18.20;99.90;;;;;;5048349;28;20501;-79
2021/09/12 06:04:51;;;;;;;39.90;29.30;;;18.20;99.90;;;;;;5054856;28;21018;-80
2021/09/12 06:07:19;;;;;;;34.73;28.90;;;18.20;99.90;;;;;;5059098;28;20576;-79
2021/09/12 06:09:47;;;;;;;39.37;30.67;;;18.20;99.90;;;;;;5058707;28;20931;-80
2021/09/12 06:12:19;;;;;;;34.17;28.60;;;18.20;99.90;;;;;;5059440;28;20504;-79
2021/09/12 06:14:48;;;;;;;36.03;28.00;;;18.30;99.90;;;;;;5059223;28;20873;-80
2021/09/12 06:17:17;;;;;;;39.90;28.60;;;18.30;99.90;;;;;;5059571;28;20521;-79
2021/09/12 06:19:46;;;;;;;36.27;27.93;;;18.30;99.90;;;;;;5058714;28;20476;-80
2021/09/12 06:22:14;;;;;;;35.73;27.50;;;18.30;99.90;;;;;;5037813;28;20451;-80
2021/09/12 06:24:43;;;;;;;35.42;29.27;;;18.30;99.90;;;;;;5053628;28;20510;-80
2021/09/12 06:27:11;;;;;;;37.33;28.87;;;18.40;99.90;;;;;;5059560;28;20596;-80
2021/09/12 06:29:40;;;;;;;35.17;27.33;;;18.40;99.90;;;;;;5041908;28;20442;-80
2021/09/12 06:32:08;;;;;;;34.23;25.73;;;18.40;99.90;;;;;;5041866;28;20548;-80
2021/09/12 06:34:38;;;;;;;34.90;28.97;;;18.40;99.90;;;;;;5058418;28;20541;-80
2021/09/12 06:37:15;;;;;;;35.60;27.57;;;18.40;99.90;;;;;;5059271;28;20434;-80
2021/09/12 06:40:06;;;;;;;29.90;24.43;;;18.50;99.90;;;;;;5058464;28;20449;-80
2021/09/12 06:42:56;;;;;;;31.67;26.17;;;18.50;99.90;;;;;;5051624;28;20449;-80
2021/09/12 06:45:25;;;;;;;28.73;24.30;;;18.50;99.90;;;;;;5053578;28;20520;-80
2021/09/12 06:47:53;;;;;;;28.30;23.90;;;18.50;99.90;;;;;;5057935;28;20424;-80
2021/09/12 06:50:29;;;;;;;31.60;25.70;;;18.50;99.90;;;;;;5057455;28;20963;-80
2021/09/12 06:52:57;;;;;;;32.00;24.13;;;18.50;99.90;;;;;;5058080;28;20488;-80
2021/09/12 06:55:27;;;;;;;28.20;23.27;;;18.50;99.90;;;;;;5057788;28;20450;-80
2021/09/12 06:57:55;;;;;;;27.33;23.77;;;18.50;99.90;;;;;;5057035;28;20661;-80
2021/09/12 07:00:23;;;;;;;29.00;23.00;;;18.50;99.90;;;;;;5056213;28;20553;-79
2021/09/12 07:02:54;;;;;;;28.73;23.63;;;18.50;99.90;;;;;;5055584;28;20656;-79
2021/09/12 07:05:25;;;;;;;28.63;24.90;;;18.50;99.90;;;;;;5047293;28;20474;-80
2021/09/12 07:07:54;;;;;;;28.00;24.50;;;18.50;99.90;;;;;;5055708;28;21025;-79
2021/09/12 07:10:22;;;;;;;33.30;24.93;;;18.60;99.90;;;;;;5054368;28;20473;-79
2021/09/12 07:12:51;;;;;;;34.27;24.97;;;18.60;99.90;;;;;;5044114;28;20454;-79
2021/09/12 07:15:20;;;;;;;26.77;23.13;;;18.60;99.90;;;;;;5038456;28;20476;-79
2021/09/12 07:17:48;;;;;;;30.83;24.30;;;18.60;99.90;;;;;;5034977;28;20483;-80
2021/09/12 07:20:16;;;;;;;31.47;25.60;;;18.60;99.90;;;;;;5026699;28;20522;-79
2021/09/12 07:22:47;;;;;;;33.77;25.20;;;18.60;99.90;;;;;;5019507;28;20843;-79
2021/09/12 07:25:18;;;;;;;27.23;24.07;;;18.70;99.90;;;;;;5054734;28;21052;-79
2021/09/12 07:27:46;;;;;;;27.60;23.80;;;18.70;99.90;;;;;;5039140;28;20439;-79
2021/09/12 07:30:15;;;;;;;28.97;23.77;;;18.70;99.90;;;;;;5039232;28;20294;-79
2021/09/12 07:32:44;;;;;;;27.53;23.73;;;18.70;99.90;;;;;;5029083;28;20490;-79
2021/09/12 07:35:12;;;;;;;30.10;25.13;;;18.80;99.90;;;;;;5019404;28;20475;-79
2021/09/12 07:37:41;;;;;;;28.20;22.23;;;18.80;99.90;;;;;;5019386;28;20493;-79
2021/09/12 07:40:12;;;;;;;31.10;25.07;;;18.80;99.90;;;;;;5037230;28;20801;-79
2021/09/12 07:42:42;;;;;;;31.60;23.40;;;18.80;99.90;;;;;;5019807;28;20773;-79
2021/09/12 07:45:10;;;;;;;26.10;22.67;;;18.90;99.90;;;;;;5050748;28;20474;-78
2021/09/12 07:47:39;;;;;;;26.63;23.73;;;18.90;99.90;;;;;;5048573;28;20898;-78
2021/09/12 07:50:08;;;;;;;26.47;22.60;;;18.90;99.90;;;;;;5056214;28;21013;-79
2021/09/12 07:52:36;;;;;;;30.00;22.70;;;18.90;99.90;;;;;;5056237;28;20445;-79
2021/09/12 07:55:05;;;;;;;27.65;23.92;;;19.00;99.90;;;;;;5018845;28;20938;-79
2021/09/12 07:57:34;;;;;;;30.77;23.77;;;19.10;99.90;;;;;;5036371;28;20203;-79
2021/09/12 08:00:03;;;;;;;26.48;22.67;;;19.20;99.90;;;;;;5036221;28;20454;-78
2021/09/12 08:02:38;;;;;;;24.60;21.77;;;19.20;99.90;;;;;;5036330;28;20220;-79
2021/09/12 08:05:08;;;;;;;23.77;21.30;;;19.20;99.90;;;;;;5018154;28;20529;-79
2021/09/12 08:07:36;;;;;;;23.63;21.07;;;19.30;99.90;;;;;;5018142;28;20558;-79
2021/09/12 08:10:06;;;;;;;23.23;20.50;;;19.30;99.90;;;;;;5018471;28;20482;-79
2021/09/12 08:12:36;;;;;;;26.20;20.87;;;19.40;99.90;;;;;;5018115;28;20978;-79
2021/09/12 08:15:06;;;;;;;22.23;19.00;;;19.40;99.90;;;;;;5048001;28;20462;-79
2021/09/12 08:17:34;;;;;;;23.60;19.93;;;19.50;99.90;;;;;;5038132;28;20477;-79
2021/09/12 08:20:03;;;;;;;21.33;19.17;;;19.50;99.90;;;;;;5055714;28;20477;-79
2021/09/12 08:22:31;;;;;;;21.97;18.20;;;19.50;99.90;;;;;;5058503;28;20544;-79
2021/09/12 08:25:05;;;;;;;21.93;19.73;;;19.50;99.90;;;;;;5060425;28;20549;-79
2021/09/12 08:27:47;;;;;;;23.70;20.35;;;19.50;99.90;;;;;;5057419;28;20439;-79
2021/09/12 08:30:15;;;;;;;27.53;21.17;;;19.60;99.90;;;;;;5056924;28;20728;-78
2021/09/12 08:32:44;;;;;;;22.87;20.57;;;19.70;99.90;;;;;;5047330;28;20550;-78
2021/09/12 08:35:12;;;;;;;23.90;21.60;;;19.70;99.90;;;;;;5039546;28;20564;-78
2021/09/12 08:37:40;;;;;;;23.93;21.47;;;19.80;99.90;;;;;;5057454;28;20441;-77
2021/09/12 08:40:10;;;;;;;24.70;20.70;;;19.80;99.90;;;;;;5040488;28;20450;-78
2021/09/12 08:42:41;;;;;;;24.93;20.13;;;19.80;99.90;;;;;;5059399;28;20994;-79
2021/09/12 08:45:12;;;;;;;20.93;18.73;;;19.80;99.90;;;;;;5042428;28;20850;-79
2021/09/12 08:47:42;;;;;;;21.17;19.10;;;19.70;99.90;;;;;;5043104;28;20477;-79
2021/09/12 08:50:11;;;;;;;18.83;16.90;;;19.70;99.90;;;;;;5042934;28;20453;-80
2021/09/12 08:52:40;;;;;;;21.80;18.10;;;19.70;99.90;;;;;;5043106;28;20450;-81
2021/09/12 08:55:09;;;;;;;20.47;18.30;;;19.80;99.90;;;;;;5056149;28;20501;-81
2021/09/12 08:57:46;;;;;;;19.20;17.20;;;19.80;99.90;;;;;;5042514;28;20534;-79
2021/09/12 09:00:16;;;;;;;22.63;18.10;;;19.80;99.90;;;;;;5057100;28;20805;-78
2021/09/12 09:02:44;;;;;;;17.97;16.33;;;19.90;99.90;;;;;;5057295;28;20886;-78
2021/09/12 09:05:13;;;;;;;20.65;18.67;;;20.00;99.90;;;;;;5037850;28;20458;-79
2021/09/12 09:07:41;;;;;;;19.03;17.03;;;20.10;99.90;;;;;;5040897;28;20229;-78
2021/09/12 09:10:20;;;;;;;17.60;16.00;;;20.10;99.90;;;;;;5040141;28;20541;-78
2021/09/12 09:12:49;;;;;;;16.40;15.00;;;20.20;99.90;;;;;;5040361;28;20480;-79
2021/09/12 09:15:21;;;;;;;16.73;14.93;;;20.20;99.90;;;;;;5040141;28;20526;-79
2021/09/12 09:18:06;;;;;;;17.53;15.37;;;20.30;99.90;;;;;;5057827;28;20545;-79
2021/09/12 09:20:35;;;;;;;17.23;15.53;;;20.30;99.90;;;;;;5021122;28;20435;-79
2021/09/12 09:23:09;;;;;;;15.60;14.20;;;20.40;99.90;;;;;;5054636;28;20453;-78
2021/09/12 09:25:37;;;;;;;16.30;14.60;;;20.40;99.90;;;;;;5061831;28;20480;-79
2021/09/12 09:28:07;;;;;;;16.30;14.07;;;20.40;99.90;;;;;;5057897;28;20521;-79
2021/09/12 09:30:49;;;;;;;15.80;14.30;;;20.40;99.90;;;;;;5057606;28;20621;-79
2021/09/12 09:33:23;;;;;;;15.77;14.37;;;20.50;99.90;;;;;;5042110;28;20535;-78
2021/09/12 09:35:57;;;;;;;18.43;16.53;;;20.50;99.90;;;;;;5055036;28;20444;-79
2021/09/12 09:38:27;;;;;;;17.70;16.03;;;20.60;99.90;;;;;;5057594;28;20533;-79
2021/09/12 09:41:08;;;;;;;18.67;15.80;;;20.60;99.90;;;;;;5057522;28;20541;-79
2021/09/12 09:43:41;;;;;;;17.57;15.97;;;20.60;99.90;;;;;;5054883;28;20473;-78
2021/09/12 09:46:30;;;;;;;16.97;15.43;;;20.60;99.90;;;;;;5054347;28;20601;-78
2021/09/12 09:49:00;;;;;;;19.80;14.03;;;20.70;99.90;;;;;;5041588;28;20576;-78
2021/09/12 09:51:28;;;;;;;15.23;13.70;;;20.70;99.90;;;;;;5037729;28;20450;-78
2021/09/12 09:53:58;;;;;;;15.70;14.30;;;20.80;99.90;;;;;;5054537;28;20556;-78
2021/09/12 09:56:29;;;;;;;14.50;12.93;;;20.80;99.90;;;;;;5055189;28;20442;-78
2021/09/12 09:58:58;;;;;;;13.13;11.90;;;20.90;99.90;;;;;;5054355;28;20442;-78
2021/09/12 10:01:28;;;;;;;13.50;12.20;;;20.90;99.90;;;;;;5053274;28;20422;-78
2021/09/12 10:03:59;;;;;;;13.53;12.13;;;20.90;99.90;;;;;;5054546;28;20247;-78
2021/09/12 10:06:30;;;;;;;14.93;13.32;;;20.90;99.90;;;;;;5036339;28;20957;-78
2021/09/12 10:09:04;;;;;;;16.30;11.30;;;21.00;99.90;;;;;;5049602;28;20628;-79
2021/09/12 10:11:33;;;;;;;13.77;12.47;;;21.00;99.90;;;;;;5060286;28;20430;-79
2021/09/12 10:14:02;;;;;;;12.33;10.93;;;21.00;99.90;;;;;;5061876;28;20497;-79
2021/09/12 10:16:33;;;;;;;12.43;11.10;;;21.00;99.90;;;;;;5042573;28;21037;-79
2021/09/12 10:19:03;;;;;;;17.10;11.37;;;21.10;99.90;;;;;;5058390;28;20800;-79
2021/09/12 10:21:31;;;;;;;12.77;11.10;;;21.10;99.90;;;;;;5062725;28;20501;-79
2021/09/12 10:24:05;;;;;;;17.00;12.30;;;21.10;99.90;;;;;;5057945;28;20553;-80
2021/09/12 10:26:37;;;;;;;12.33;11.30;;;21.10;99.90;;;;;;5039978;28;20438;-80
2021/09/12 10:29:28;;;;;;;12.97;11.77;;;21.10;99.90;;;;;;5021288;28;20467;-79
2021/09/12 10:31:56;;;;;;;13.20;11.80;;;21.20;99.90;;;;;;5037879;28;20468;-79
2021/09/12 10:34:25;;;;;;;11.93;10.83;;;21.30;99.90;;;;;;5021178;28;20226;-78
2021/09/12 10:36:55;;;;;;;12.95;11.75;;;21.40;99.90;;;;;;5020612;28;20483;-79
2021/09/12 10:39:31;;;;;;;13.43;11.90;;;21.40;99.90;;;;;;5049208;28;20724;-78
2021/09/12 10:42:19;;;;;;;11.37;9.97;;;21.40;99.90;;;;;;5058124;28;20450;-79
2021/09/12 10:45:22;;;;;;;13.17;10.00;;;21.40;99.90;;;;;;5058376;28;20509;-80
2021/09/12 10:47:52;;;;;;;11.23;9.73;;;21.40;99.90;;;;;;5057347;28;20472;-79
2021/09/12 10:50:45;;;;;;;10.57;8.20;;;21.50;99.90;;;;;;5040624;28;20454;-79
2021/09/12 10:53:13;;;;;;;10.77;8.90;;;21.50;99.90;;;;;;5047715;28;20458;-78
2021/09/12 10:56:04;;;;;;;9.30;8.40;;;21.60;99.90;;;;;;5057522;28;21044;-79
2021/09/12 10:58:33;;;;;;;13.60;9.40;;;21.70;99.90;;;;;;5057570;28;20438;-79
2021/09/12 11:01:02;;;;;;;9.07;8.18;;;21.70;99.90;;;;;;5058628;28;20458;-80
2021/09/12 11:03:32;;;;;;;9.97;8.10;;;21.80;99.90;;;;;;5046527;28;20238;-80
2021/09/12 11:06:02;;;;;;;8.77;7.90;;;21.90;99.90;;;;;;5057273;28;20453;-79
2021/09/12 11:08:38;;;;;;;9.80;8.80;;;21.90;99.90;;;;;;5056723;28;20515;-79
2021/09/12 11:11:07;;;;;;;8.50;7.60;;;22.00;99.90;;;;;;5056993;28;20183;-79
2021/09/12 11:13:37;;;;;;;9.73;8.00;;;22.00;99.90;;;;;;5059112;28;21063;-80
2021/09/12 11:16:08;;;;;;;10.27;9.10;;;22.10;99.90;;;;;;5058450;28;20438;-79
2021/09/12 11:18:47;;;;;;;11.43;8.40;;;22.10;99.90;;;;;;5055890;28;20814;-80
2021/09/12 11:21:32;;;;;;;8.67;7.87;;;22.10;99.90;;;;;;5057028;28;20481;-79
2021/09/12 11:24:05;;;;;;;9.60;8.60;;;22.10;99.90;;;;;;5058796;28;20488;-79
2021/09/12 11:26:42;;;;;;;9.63;8.60;;;22.10;99.90;;;;;;5057608;28;20452;-79
2021/09/12 11:29:12;;;;;;;9.47;8.20;;;22.10;99.90;;;;;;5058857;28;20456;-79
2021/09/12 11:31:42;;;;;;;9.85;8.85;;;22.10;99.90;;;;;;5056373;28;20542;-80
2021/09/12 11:34:11;;;;;;;9.30;8.33;;;22.10;99.90;;;;;;5056455;28;20215;-79
2021/09/12 11:36:50;;;;;;;8.77;7.87;;;22.20;99.90;;;;;;5057711;28;20488;-79
2021/09/12 11:39:22;;;;;;;10.27;9.13;;;22.20;99.90;;;;;;5056612;28;20502;-79
2021/09/12 11:41:51;;;;;;;10.13;9.23;;;22.30;99.90;;;;;;5055102;28;20249;-79
2021/09/12 11:44:29;;;;;;;9.77;8.77;;;22.30;99.90;;;;;;5057022;28;20470;-80
2021/09/12 11:46:57;;;;;;;10.10;8.97;;;22.30;99.90;;;;;;5055520;28;20445;-79
2021/09/12 11:49:25;;;;;;;9.03;8.20;;;22.20;99.90;;;;;;5040307;28;20466;-80
2021/09/12 11:51:55;;;;;;;9.27;8.13;;;22.20;99.90;;;;;;5039752;28;20450;-80
2021/09/12 11:54:28;;;;;;;9.63;8.83;;;22.20;99.90;;;;;;5039001;28;20461;-79
2021/09/12 11:56:59;;;;;;;10.23;9.37;;;22.10;99.90;;;;;;5039184;28;20476;-79
2021/09/12 11:59:29;;;;;;;10.43;9.40;;;22.10;99.90;;;;;;5043597;28;21035;-79
2021/09/12 12:02:02;;;;;;;9.55;8.68;;;22.10;99.90;;;;;;5043863;28;20497;-79
2021/09/12 12:04:32;;;;;;;10.43;8.37;;;22.10;99.90;;;;;;5057731;28;20235;-79
2021/09/12 12:07:01;;;;;;;9.20;8.17;;;22.10;99.90;;;;;;5057663;28;20860;-79
2021/09/12 12:09:41;;;;;;;10.80;8.50;;;22.10;99.90;;;;;;5038107;28;20444;-79
2021/09/12 12:12:13;;;;;;;8.50;7.50;;;22.10;99.90;;;;;;5039316;28;20218;-79
2021/09/12 12:14:47;;;;;;;8.60;6.70;;;22.10;99.90;;;;;;5039441;28;20531;-79
2021/09/12 12:17:16;;;;;;;8.50;7.63;;;22.10;99.90;;;;;;5057572;28;20430;-79
2021/09/12 12:19:45;;;;;;;8.70;7.90;;;22.00;99.90;;;;;;5039458;28;20442;-79
2021/09/12 12:22:15;;;;;;;9.33;7.73;;;22.00;99.90;;;;;;5057580;28;20525;-79
2021/09/12 12:24:46;;;;;;;9.90;8.90;;;22.00;99.90;;;;;;5051297;28;20473;-79
2021/09/12 12:27:18;;;;;;;8.50;7.43;;;21.90;99.90;;;;;;5051828;28;20466;-80
2021/09/12 12:29:55;;;;;;;10.27;9.13;;;21.90;99.90;;;;;;5041404;28;20504;-80
2021/09/12 12:32:23;;;;;;;10.93;8.20;;;21.90;99.90;;;;;;5056290;28;20474;-79
2021/09/12 12:34:54;;;;;;;7.93;7.13;;;21.90;99.90;;;;;;5039384;28;20800;-79
2021/09/12 12:37:43;;;;;;;8.27;7.37;;;21.90;99.90;;;;;;5039824;28;20442;-79
2021/09/12 12:40:19;;;;;;;9.05;7.45;;;21.80;99.90;;;;;;5054278;28;20435;-79
2021/09/12 12:42:49;;;;;;;10.27;7.30;;;21.90;99.90;;;;;;5055552;28;20278;-79
2021/09/12 12:45:20;;;;;;;9.33;7.73;;;21.90;99.90;;;;;;5055376;28;20474;-79
2021/09/12 12:47:49;;;;;;;9.10;7.07;;;21.80;99.90;;;;;;5046408;28;20450;-79